createdAt,value
2019-03-13T00:02:44.212Z,-83
2019-03-13T00:05:16.281Z,-84
2019-03-13T00:07:48.284Z,-83
2019-03-13T00:10:20.087Z,-83
2019-03-13T00:12:51.923Z,-84
2019-03-13T00:15:24.016Z,-84
2019-03-13T00:17:55.864Z,-83
2019-03-13T00:20:27.655Z,-83
2019-03-13T00:22:59.531Z,-83
2019-03-13T00:25:31.374Z,-84
2019-03-13T00:28:03.282Z,-84
2019-03-13T00:30:35.117Z,-84
2019-03-13T00:33:06.916Z,-83
2019-03-13T00:35:38.767Z,-84
2019-03-13T00:38:10.947Z,-83
2019-03-13T00:40:43.089Z,-83
2019-03-13T00:43:14.888Z,-83
2019-03-13T00:45:46.714Z,-83
2019-03-13T00:48:18.509Z,-84
2019-03-13T00:50:51.064Z,-83
2019-03-13T00:53:22.876Z,-83
2019-03-13T00:55:54.987Z,-83
2019-03-13T00:58:26.791Z,-83
2019-03-13T01:01:10.539Z,-84
2019-03-13T01:04:04.399Z,-84
2019-03-13T01:06:42.642Z,-84
2019-03-13T01:09:14.444Z,-83
2019-03-13T01:11:46.352Z,-83
2019-03-13T01:14:18.433Z,-83
2019-03-13T01:16:50.548Z,-83
2019-03-13T01:19:22.356Z,-83
2019-03-13T01:21:54.254Z,-83
2019-03-13T01:24:26.054Z,-83
2019-03-13T01:26:57.874Z,-83
2019-03-13T01:29:29.745Z,-83
2019-03-13T01:32:25.685Z,-83
2019-03-13T01:35:03.766Z,-82
2019-03-13T01:37:36.731Z,-83
2019-03-13T01:40:10.439Z,-83
2019-03-13T01:42:42.273Z,-83
2019-03-13T01:45:14.178Z,-83
2019-03-13T01:47:46.008Z,-83
2019-03-13T01:50:17.835Z,-83
2019-03-13T01:52:49.637Z,-83
2019-03-13T01:55:21.466Z,-83
2019-03-13T01:57:53.267Z,-83
2019-03-13T02:00:25.175Z,-82
2019-03-13T02:02:57.226Z,-83
2019-03-13T02:05:29.054Z,-82
2019-03-13T02:08:00.860Z,-83
2019-03-13T02:10:32.703Z,-83
2019-03-13T02:13:04.496Z,-83
2019-03-13T02:15:36.320Z,-83
2019-03-13T02:18:08.110Z,-83
2019-03-13T02:20:39.963Z,-83
2019-03-13T02:23:11.783Z,-83
2019-03-13T02:25:43.969Z,-83
2019-03-13T02:28:16.052Z,-83
2019-03-13T02:30:48.506Z,-82
2019-03-13T02:33:20.285Z,-82
2019-03-13T02:35:52.123Z,-83
2019-03-13T02:38:23.922Z,-83
2019-03-13T02:40:55.769Z,-83
2019-03-13T02:43:27.555Z,-84
2019-03-13T02:45:59.678Z,-83
2019-03-13T02:48:31.616Z,-83
2019-03-13T02:51:03.709Z,-82
2019-03-13T02:53:35.529Z,-82
2019-03-13T02:56:07.881Z,-83
2019-03-13T02:58:40.045Z,-83
2019-03-13T03:01:22.658Z,-82
2019-03-13T03:03:56.305Z,-83
2019-03-13T03:06:28.143Z,-83
2019-03-13T03:09:00.258Z,-83
2019-03-13T03:11:32.092Z,-82
2019-03-13T03:14:04.167Z,-83
2019-03-13T03:16:36.289Z,-83
2019-03-13T03:19:08.056Z,-83
2019-03-13T03:21:40.335Z,-83
2019-03-13T03:24:12.129Z,-83
2019-03-13T03:26:43.974Z,-83
2019-03-13T03:29:16.042Z,-82
2019-03-13T03:31:47.925Z,-82
2019-03-13T03:34:20.032Z,-84
2019-03-13T03:36:51.955Z,-82
2019-03-13T03:39:23.768Z,-81
2019-03-13T03:41:55.974Z,-82
2019-03-13T03:44:27.742Z,-82
2019-03-13T03:46:59.721Z,-82
2019-03-13T03:49:31.502Z,-82
2019-03-13T03:52:03.355Z,-82
2019-03-13T03:54:35.262Z,-83
2019-03-13T03:57:07.070Z,-82
2019-03-13T03:59:38.864Z,-82
2019-03-13T04:02:10.726Z,-82
2019-03-13T04:04:42.536Z,-82
2019-03-13T04:07:14.463Z,-83
2019-03-13T04:09:46.253Z,-82
2019-03-13T04:12:18.196Z,-82
2019-03-13T04:14:49.978Z,-81
2019-03-13T04:17:21.930Z,-82
2019-03-13T04:19:53.725Z,-82
2019-03-13T04:22:25.680Z,-82
2019-03-13T04:25:32.308Z,-81
2019-03-13T04:28:04.261Z,-81
2019-03-13T04:30:36.489Z,-80
2019-03-13T04:33:08.341Z,-82
2019-03-13T04:35:40.122Z,-83
2019-03-13T04:38:11.970Z,-84
2019-03-13T04:40:43.762Z,-82
2019-03-13T04:43:15.703Z,-82
2019-03-13T04:45:47.478Z,-82
2019-03-13T04:48:19.484Z,-82
2019-03-13T04:50:51.648Z,-83
2019-03-13T04:53:23.916Z,-83
2019-03-13T04:55:55.837Z,-83
2019-03-13T04:58:27.675Z,-83
2019-03-13T05:01:00.112Z,-83
2019-03-13T05:03:31.935Z,-83
2019-03-13T05:06:21.098Z,-83
2019-03-13T05:09:13.058Z,-83
2019-03-13T05:11:44.954Z,-82
2019-03-13T05:14:16.790Z,-83
2019-03-13T05:16:48.585Z,-83
2019-03-13T05:19:20.677Z,-83
2019-03-13T05:21:52.876Z,-83
2019-03-13T05:24:24.828Z,-83
2019-03-13T05:26:56.742Z,-83
2019-03-13T05:29:28.594Z,-83
2019-03-13T05:32:00.382Z,-83
2019-03-13T05:34:32.525Z,-84
2019-03-13T05:37:04.327Z,-82
2019-03-13T05:39:36.415Z,-82
2019-03-13T05:42:08.497Z,-84
2019-03-13T05:44:40.787Z,-83
2019-03-13T05:47:12.586Z,-83
2019-03-13T05:49:45.135Z,-83
2019-03-13T05:52:16.935Z,-83
2019-03-13T05:54:48.769Z,-83
2019-03-13T05:57:20.905Z,-83
2019-03-13T05:59:52.739Z,-83
2019-03-13T06:02:24.534Z,-82
2019-03-13T06:04:56.412Z,-83
2019-03-13T06:07:28.196Z,-84
2019-03-13T06:10:00.019Z,-82
2019-03-13T06:12:31.805Z,-82
2019-03-13T06:15:03.917Z,-82
2019-03-13T06:17:36.059Z,-82
2019-03-13T06:20:10.518Z,-83
2019-03-13T06:22:42.153Z,-82
2019-03-13T06:25:14.002Z,-82
2019-03-13T06:27:46.694Z,-83
2019-03-13T06:30:19.138Z,-83
2019-03-13T06:32:51.423Z,-82
2019-03-13T06:35:23.891Z,-82
2019-03-13T06:37:56.178Z,-82
2019-03-13T06:40:28.016Z,-82
2019-03-13T06:42:59.831Z,-81
2019-03-13T06:45:31.936Z,-82
2019-03-13T06:48:04.011Z,-83
2019-03-13T06:50:35.845Z,-81
2019-03-13T06:53:07.657Z,-82
2019-03-13T06:55:39.496Z,-81
2019-03-13T06:58:11.605Z,-81
2019-03-13T07:01:08.655Z,-86
2019-03-13T07:04:00.276Z,-85
2019-03-13T07:06:53.907Z,-85
2019-03-13T07:09:46.805Z,-86
2019-03-13T07:12:32.413Z,-86
2019-03-13T07:15:38.614Z,-85
2019-03-13T07:18:22.826Z,-86
2019-03-13T07:21:12.196Z,-86
2019-03-13T07:24:09.486Z,-84
2019-03-13T07:27:09.048Z,-84
2019-03-13T07:29:50.108Z,-84
2019-03-13T07:32:44.279Z,-84
2019-03-13T07:35:34.174Z,-84
2019-03-13T07:38:36.862Z,-84
2019-03-13T07:41:35.783Z,-84
2019-03-13T07:44:26.608Z,-84
2019-03-13T07:47:15.014Z,-84
2019-03-13T07:50:11.125Z,-84
2019-03-13T07:53:14.657Z,-85
2019-03-13T07:56:08.267Z,-82
2019-03-13T07:58:57.743Z,-82
2019-03-13T08:01:51.245Z,-82
2019-03-13T08:04:37.558Z,-82
2019-03-13T08:07:28.236Z,-84
2019-03-13T08:10:13.944Z,-82
2019-03-13T08:12:57.407Z,-81
2019-03-13T08:15:44.397Z,-82
2019-03-13T08:18:26.059Z,-81
2019-03-13T08:21:15.716Z,-82
2019-03-13T08:24:25.213Z,-81
2019-03-13T08:27:18.557Z,-82
2019-03-13T08:30:09.288Z,-82
2019-03-13T08:33:00.434Z,-83
2019-03-13T08:35:50.365Z,-82
2019-03-13T08:38:27.615Z,-82
2019-03-13T08:41:17.907Z,-83
2019-03-13T08:44:08.955Z,-83
2019-03-13T08:46:58.056Z,-82
2019-03-13T08:49:48.792Z,-82
2019-03-13T08:52:33.281Z,-82
2019-03-13T08:55:30.873Z,-83
2019-03-13T08:58:11.256Z,-83
2019-03-13T09:01:17.115Z,-83
2019-03-13T09:03:57.313Z,-83
2019-03-13T09:06:48.381Z,-83
2019-03-13T09:09:54.418Z,-83
2019-03-13T09:13:03.249Z,-82
2019-03-13T09:15:41.498Z,-83
2019-03-13T09:18:25.571Z,-83
2019-03-13T09:21:04.963Z,-83
2019-03-13T09:23:58.791Z,-83
2019-03-13T09:26:37.114Z,-83
2019-03-13T09:29:16.772Z,-82
2019-03-13T09:32:07.472Z,-82
2019-03-13T09:35:01.432Z,-83
2019-03-13T09:38:01.462Z,-83
2019-03-13T09:40:40.057Z,-83
2019-03-13T09:43:25.818Z,-83
2019-03-13T09:46:16.580Z,-83
2019-03-13T09:48:59.518Z,-83
2019-03-13T09:51:40.435Z,-84
2019-03-13T09:54:24.646Z,-83
2019-03-13T09:57:14.416Z,-83
2019-03-13T09:59:57.902Z,-83
2019-03-13T10:02:35.461Z,-82
2019-03-13T10:05:29.692Z,-82
2019-03-13T10:08:17.413Z,-82
2019-03-13T10:11:13.531Z,-82
2019-03-13T10:14:07.593Z,-82
2019-03-13T10:17:10.774Z,-82
2019-03-13T10:20:15.787Z,-81
2019-03-13T10:23:06.599Z,-81
2019-03-13T10:25:49.171Z,-80
2019-03-13T10:28:33.318Z,-82
2019-03-13T10:31:13.383Z,-82
2019-03-13T10:34:11.444Z,-81
2019-03-13T10:36:57.324Z,-82
2019-03-13T10:39:36.211Z,-81
2019-03-13T10:42:26.106Z,-80
2019-03-13T10:45:12.288Z,-79
2019-03-13T10:47:56.069Z,-81
2019-03-13T10:50:38.753Z,-81
2019-03-13T10:53:22.938Z,-81
2019-03-13T10:56:25.823Z,-81
2019-03-13T10:59:23.030Z,-81
2019-03-13T11:02:12.919Z,-82
2019-03-13T11:04:55.881Z,-81
2019-03-13T11:07:43.237Z,-82
2019-03-13T11:10:40.019Z,-81
2019-03-13T11:13:22.561Z,-82
2019-03-13T11:16:17.925Z,-82
2019-03-13T11:19:05.737Z,-81
2019-03-13T11:22:02.698Z,-81
2019-03-13T11:24:43.634Z,-82
2019-03-13T11:27:23.135Z,-81
2019-03-13T11:30:08.241Z,-81
2019-03-13T11:32:53.890Z,-81
2019-03-13T11:35:43.688Z,-82
2019-03-13T11:38:49.855Z,-83
2019-03-13T11:41:46.655Z,-81
2019-03-13T11:44:29.681Z,-83
2019-03-13T11:47:26.235Z,-80
2019-03-13T11:50:21.880Z,-81
2019-03-13T11:53:11.372Z,-81
2019-03-13T11:56:00.787Z,-82
2019-03-13T11:58:48.529Z,-81
2019-03-13T12:01:29.646Z,-81
2019-03-13T12:04:18.972Z,-81
2019-03-13T12:07:18.613Z,-83
2019-03-13T12:10:08.221Z,-82
2019-03-13T12:12:54.180Z,-81
2019-03-13T12:15:41.377Z,-82
2019-03-13T12:18:24.323Z,-81
2019-03-13T12:21:15.219Z,-81
2019-03-13T12:24:09.537Z,-81
2019-03-13T12:26:59.331Z,-81
2019-03-13T12:29:41.197Z,-81
2019-03-13T12:32:26.977Z,-81
2019-03-13T12:35:12.820Z,-81
2019-03-13T12:38:06.665Z,-83
2019-03-13T12:40:57.396Z,-83
2019-03-13T12:43:51.675Z,-80
2019-03-13T12:46:42.435Z,-82
2019-03-13T12:49:28.314Z,-80
2019-03-13T12:52:11.708Z,-82
2019-03-13T12:55:05.270Z,-81
2019-03-13T12:57:56.035Z,-81
2019-03-13T13:00:38.126Z,-81
2019-03-13T13:03:28.866Z,-81
2019-03-13T13:06:19.647Z,-81
2019-03-13T13:09:09.375Z,-84
2019-03-13T13:12:00.204Z,-81
2019-03-13T13:14:57.362Z,-81
2019-03-13T13:17:46.801Z,-83
2019-03-13T13:20:18.673Z,-82
2019-03-13T13:22:50.558Z,-83
2019-03-13T13:25:22.414Z,-82
2019-03-13T13:27:54.249Z,-82
2019-03-13T13:30:26.488Z,-82
2019-03-13T13:32:58.299Z,-83
2019-03-13T13:35:30.150Z,-82
2019-03-13T13:38:01.960Z,-82
2019-03-13T13:40:33.807Z,-82
2019-03-13T13:43:05.619Z,-83
2019-03-13T13:46:09.185Z,-83
2019-03-13T13:48:41.025Z,-83
2019-03-13T13:51:12.851Z,-81
2019-03-13T13:53:44.672Z,-82
2019-03-13T13:56:16.505Z,-81
2019-03-13T13:58:48.329Z,-83
2019-03-13T14:01:20.523Z,-82
2019-03-13T14:03:52.645Z,-82
2019-03-13T14:06:24.628Z,-82
2019-03-13T14:08:56.449Z,-82
2019-03-13T14:11:28.292Z,-83
2019-03-13T14:14:00.103Z,-83
2019-03-13T14:16:31.941Z,-81
2019-03-13T14:19:03.773Z,-81
2019-03-13T14:21:37.306Z,-80
2019-03-13T14:24:09.132Z,-82
2019-03-13T14:26:41.255Z,-81
2019-03-13T14:29:13.070Z,-82
2019-03-13T14:31:44.926Z,-82
2019-03-13T14:34:16.746Z,-82
2019-03-13T14:36:48.887Z,-82
2019-03-13T14:39:20.721Z,-82
2019-03-13T14:41:52.625Z,-82
2019-03-13T14:44:24.821Z,-82
2019-03-13T14:46:57.210Z,-83
2019-03-13T14:49:29.027Z,-83
2019-03-13T14:52:00.897Z,-83
2019-03-13T14:54:32.714Z,-83
2019-03-13T14:57:05.134Z,-82
2019-03-13T14:59:36.950Z,-81
2019-03-13T15:02:08.984Z,-82
2019-03-13T15:04:40.820Z,-82
2019-03-13T15:07:12.990Z,-82
2019-03-13T15:09:45.270Z,-82
2019-03-13T15:12:17.454Z,-81
2019-03-13T15:14:49.277Z,-82
2019-03-13T15:17:21.143Z,-82
2019-03-13T15:19:52.967Z,-81
2019-03-13T15:22:25.496Z,-82
2019-03-13T15:24:57.423Z,-82
2019-03-13T15:27:30.192Z,-82
2019-03-13T15:30:02.401Z,-82
2019-03-13T15:32:34.309Z,-82
2019-03-13T15:35:06.352Z,-82
2019-03-13T15:37:38.264Z,-82
2019-03-13T15:40:12.868Z,-83
2019-03-13T15:42:44.849Z,-83
2019-03-13T15:45:18.814Z,-81
2019-03-13T15:47:50.669Z,-81
2019-03-13T15:50:22.551Z,-82
2019-03-13T15:52:55.274Z,-81
2019-03-13T15:55:27.442Z,-81
2019-03-13T15:57:59.630Z,-81
2019-03-13T16:00:31.537Z,-81
2019-03-13T16:03:03.418Z,-81
2019-03-13T16:05:35.356Z,-81
2019-03-13T16:08:07.214Z,-81
2019-03-13T16:10:39.110Z,-81
2019-03-13T16:13:11.262Z,-82
2019-03-13T16:15:46.202Z,-80
2019-03-13T16:18:18.250Z,-81
2019-03-13T16:20:50.087Z,-82
2019-03-13T16:23:21.977Z,-82
2019-03-13T16:25:53.935Z,-82
2019-03-13T16:28:25.851Z,-82
2019-03-13T16:30:57.686Z,-83
2019-03-13T16:33:29.563Z,-84
2019-03-13T16:36:01.495Z,-82
2019-03-13T16:38:33.631Z,-82
2019-03-13T16:41:06.127Z,-82
2019-03-13T16:43:38.000Z,-83
2019-03-13T16:46:10.544Z,-83
2019-03-13T16:48:42.404Z,-82
2019-03-13T16:51:14.520Z,-82
2019-03-13T16:53:46.384Z,-82
2019-03-13T16:56:18.509Z,-82
2019-03-13T16:58:50.406Z,-82
2019-03-13T17:01:22.643Z,-82
2019-03-13T17:03:54.602Z,-82
2019-03-13T17:06:26.396Z,-82
2019-03-13T17:08:58.240Z,-82
2019-03-13T17:11:30.506Z,-82
2019-03-13T17:14:02.382Z,-82
2019-03-13T17:16:34.313Z,-83
2019-03-13T17:19:06.330Z,-82
2019-03-13T17:21:38.143Z,-82
2019-03-13T17:24:10.041Z,-84
2019-03-13T17:26:43.303Z,-82
2019-03-13T17:29:15.400Z,-82
2019-03-13T17:31:47.217Z,-82
2019-03-13T17:34:19.216Z,-82
2019-03-13T17:36:51.422Z,-82
2019-03-13T17:39:23.371Z,-83
2019-03-13T17:41:56.125Z,-82
2019-03-13T17:44:27.998Z,-82
2019-03-13T17:46:59.962Z,-83
2019-03-13T17:49:31.844Z,-82
2019-03-13T17:52:03.641Z,-82
2019-03-13T17:54:36.025Z,-81
2019-03-13T17:57:08.716Z,-82
2019-03-13T17:59:40.618Z,-83
2019-03-13T18:02:12.449Z,-82
2019-03-13T18:04:44.602Z,-82
2019-03-13T18:07:17.033Z,-79
2019-03-13T18:09:48.903Z,-81
2019-03-13T18:12:21.201Z,-79
2019-03-13T18:14:53.199Z,-79
2019-03-13T18:17:24.993Z,-79
2019-03-13T18:19:56.888Z,-79
2019-03-13T18:22:28.778Z,-79
2019-03-13T18:25:01.088Z,-79
2019-03-13T18:27:32.931Z,-79
2019-03-13T18:30:05.185Z,-81
2019-03-13T18:32:41.941Z,-82
2019-03-13T18:35:11.811Z,-81
2019-03-13T18:37:43.989Z,-82
2019-03-13T18:40:16.109Z,-82
2019-03-13T18:42:48.099Z,-82
2019-03-13T18:45:23.588Z,-83
2019-03-13T18:47:55.484Z,-82
2019-03-13T18:50:27.626Z,-81
2019-03-13T18:52:59.969Z,-81
2019-03-13T18:55:32.130Z,-82
2019-03-13T18:58:03.980Z,-82
2019-03-13T19:00:36.130Z,-83
2019-03-13T19:03:09.242Z,-83
2019-03-13T19:05:41.202Z,-82
2019-03-13T19:08:13.485Z,-81
2019-03-13T19:10:45.799Z,-83
2019-03-13T19:13:19.029Z,-82
2019-03-13T19:15:51.189Z,-81
2019-03-13T19:18:23.569Z,-82
2019-03-13T19:20:58.425Z,-83
2019-03-13T19:23:31.908Z,-80
2019-03-13T19:26:03.892Z,-82
2019-03-13T19:28:35.934Z,-80
2019-03-13T19:31:08.111Z,-81
2019-03-13T19:33:40.444Z,-81
2019-03-13T19:36:12.893Z,-80
2019-03-13T19:38:45.516Z,-83
2019-03-13T19:41:17.383Z,-82
2019-03-13T19:43:49.708Z,-83
2019-03-13T19:46:21.772Z,-82
2019-03-13T19:48:53.809Z,-82
2019-03-13T19:51:25.676Z,-81
2019-03-13T19:53:57.832Z,-81
2019-03-13T19:56:35.130Z,-83
2019-03-13T19:59:07.696Z,-80
2019-03-13T20:01:39.514Z,-83
2019-03-13T20:04:11.509Z,-83
2019-03-13T20:06:43.329Z,-82
2019-03-13T20:09:15.369Z,-82
2019-03-13T20:11:47.289Z,-82
2019-03-13T20:14:20.012Z,-81
2019-03-13T20:16:51.817Z,-81
2019-03-13T20:19:23.688Z,-81
2019-03-13T20:21:55.500Z,-81
2019-03-13T20:24:27.499Z,-81
2019-03-13T20:26:59.613Z,-82
2019-03-13T20:29:32.035Z,-83
2019-03-13T20:32:03.845Z,-80
2019-03-13T20:34:36.709Z,-80
2019-03-13T20:37:09.101Z,-80
2019-03-13T20:39:40.980Z,-80
2019-03-13T20:42:13.154Z,-81
2019-03-13T20:44:45.010Z,-81
2019-03-13T20:47:16.811Z,-81
2019-03-13T20:49:49.310Z,-81
2019-03-13T20:52:21.177Z,-81
2019-03-13T20:54:53.478Z,-80
2019-03-13T20:57:25.281Z,-81
2019-03-13T20:59:57.555Z,-80
2019-03-13T21:02:29.367Z,-80
2019-03-13T21:05:01.289Z,-80
2019-03-13T21:07:34.315Z,-80
2019-03-13T21:10:06.941Z,-80
2019-03-13T21:12:39.185Z,-79
2019-03-13T21:15:11.247Z,-80
2019-03-13T21:17:43.114Z,-80
2019-03-13T21:20:16.010Z,-81
2019-03-13T21:22:47.843Z,-80
2019-03-13T21:25:20.047Z,-80
2019-03-13T21:27:51.916Z,-80
2019-03-13T21:30:24.719Z,-80
2019-03-13T21:32:56.638Z,-83
2019-03-13T21:35:28.548Z,-81
2019-03-13T21:38:00.946Z,-82
2019-03-13T21:40:33.459Z,-82
2019-03-13T21:43:05.281Z,-84
2019-03-13T21:45:41.562Z,-83
2019-03-13T21:48:10.940Z,-82
2019-03-13T21:50:42.812Z,-83
2019-03-13T21:53:14.636Z,-83
2019-03-13T21:55:46.507Z,-82
2019-03-13T21:58:19.080Z,-83
2019-03-13T22:00:51.211Z,-83
2019-03-13T22:03:28.356Z,-83
2019-03-13T22:05:56.603Z,-83
2019-03-13T22:08:28.700Z,-83
2019-03-13T22:11:00.567Z,-82
2019-03-13T22:13:32.371Z,-83
2019-03-13T22:16:04.542Z,-83
2019-03-13T22:18:36.402Z,-82
2019-03-13T22:21:08.320Z,-80
2019-03-13T22:23:40.433Z,-81
2019-03-13T22:26:12.645Z,-81
2019-03-13T22:28:45.128Z,-82
2019-03-13T22:31:17.289Z,-81
2019-03-13T22:33:49.548Z,-82
2019-03-13T22:38:58.363Z,-82
2019-03-13T22:41:30.901Z,-83
2019-03-13T22:44:03.017Z,-82
2019-03-13T22:46:35.422Z,-82
2019-03-13T22:49:07.553Z,-82
2019-03-13T22:51:39.617Z,-82
2019-03-13T22:54:11.457Z,-82
2019-03-13T22:56:44.057Z,-83
2019-03-13T22:59:15.889Z,-83
2019-03-13T23:01:47.700Z,-83
2019-03-13T23:04:19.846Z,-83
2019-03-13T23:06:51.929Z,-81
2019-03-13T23:09:23.789Z,-82
2019-03-13T23:11:55.592Z,-83
2019-03-13T23:14:28.215Z,-81
2019-03-13T23:17:00.084Z,-82
2019-03-13T23:19:32.213Z,-82
2019-03-13T23:22:04.027Z,-81
2019-03-13T23:24:38.168Z,-82
2019-03-13T23:27:10.429Z,-81
2019-03-13T23:29:42.299Z,-82
2019-03-13T23:32:14.209Z,-82
2019-03-13T23:34:46.059Z,-81
2019-03-13T23:37:18.833Z,-81
2019-03-13T23:39:50.668Z,-81
2019-03-13T23:42:22.581Z,-82
2019-03-13T23:44:55.048Z,-82
2019-03-13T23:47:27.294Z,-81
2019-03-13T23:49:59.129Z,-81
2019-03-13T23:52:31.357Z,-82
2019-03-13T23:55:03.168Z,-81
2019-03-13T23:57:35.347Z,-81
